Terminal Aerodrome Forecast
Issued by NWS

Home | Current Version | Previous Version | Text Only | Print | Product List | Glossary On
Versions: 1 2 3 4 5 6 7 8 9 10 11 12 13 14
355
FTUS45 KABQ 022341
TAFLVS
TAF
KLVS 022341Z 0300/0324 04010KT P6SM VCSH OVC030
      TEMPO 0301/0305 2SM -SN BR OVC012
     FM030600 03008KT 3SM -SN OVC025
     FM030900 02006KT 3SM -SN BR OVC008
     FM031400 03006KT P6SM VCSH BKN015
     FM031830 15009KT P6SM BKN040=

USA.gov is the U.S. government's official web portal to all federal, state and local government web resources and services.